createdAt,value
2018-01-13T00:04:41.666Z,50.60
2018-01-13T00:10:45.190Z,45.67
2018-01-13T00:16:48.707Z,62.47
2018-01-13T00:22:52.307Z,76.33
2018-01-13T00:28:56.683Z,39.93
2018-01-13T00:35:00.972Z,38.83
2018-01-13T00:41:05.271Z,34.77
2018-01-13T00:47:08.758Z,37.13
2018-01-13T00:53:12.287Z,36.90
2018-01-13T00:59:15.754Z,39.60
2018-01-13T01:05:19.229Z,39.37
2018-01-13T01:11:22.692Z,46.50
2018-01-13T01:17:27.039Z,40.73
2018-01-13T01:23:30.905Z,47.47
2018-01-13T01:29:34.387Z,42.90
2018-01-13T01:35:37.868Z,41.83
2018-01-13T01:41:41.338Z,51.87
2018-01-13T01:47:44.803Z,39.70
2018-01-13T01:53:48.300Z,41.93
2018-01-13T01:59:52.536Z,47.17
2018-01-13T02:05:56.870Z,35.77
2018-01-13T02:12:00.372Z,38.73
2018-01-13T02:18:04.071Z,43.47
2018-01-13T02:24:08.320Z,46.13
2018-01-13T02:30:12.192Z,41.57
2018-01-13T02:36:15.755Z,35.30
2018-01-13T02:42:20.007Z,41.60
2018-01-13T02:48:23.773Z,37.73
2018-01-13T02:54:27.713Z,37.63
2018-01-13T03:00:31.205Z,40.10
2018-01-13T03:06:34.690Z,41.63
2018-01-13T03:12:38.161Z,41.93
2018-01-13T03:18:41.638Z,43.70
2018-01-13T03:24:45.145Z,35.40
2018-01-13T03:30:48.671Z,38.87
2018-01-13T03:36:52.936Z,36.80
2018-01-13T03:42:56.936Z,41.30
2018-01-13T03:49:00.561Z,34.87
2018-01-13T03:55:05.233Z,43.80
2018-01-13T04:01:08.719Z,38.40
2018-01-13T04:07:12.194Z,39.40
2018-01-13T04:13:15.673Z,50.73
2018-01-13T04:19:19.141Z,43.67
2018-01-13T04:25:22.622Z,47.87
2018-01-13T04:31:26.958Z,45.53
2018-01-13T04:37:30.454Z,46.07
2018-01-13T04:43:34.925Z,49.00
2018-01-13T04:49:38.401Z,47.77
2018-01-13T04:55:41.990Z,51.50
2018-01-13T05:01:45.534Z,44.43
2018-01-13T05:07:49.032Z,50.67
2018-01-13T05:13:53.302Z,50.20
2018-01-13T05:19:56.802Z,54.10
2018-01-13T05:26:00.376Z,56.53
2018-01-13T05:32:03.913Z,38.23
2018-01-13T05:38:07.421Z,45.20
2018-01-13T05:44:11.749Z,42.33
2018-01-13T05:50:15.229Z,48.53
2018-01-13T05:56:18.715Z,51.67
2018-01-13T06:02:22.948Z,44.07
2018-01-13T06:08:27.025Z,47.97
2018-01-13T06:14:30.508Z,43.83
2018-01-13T06:20:33.969Z,41.03
2018-01-13T06:26:37.494Z,42.43
2018-01-13T06:32:41.039Z,43.10
2018-01-13T06:38:45.375Z,43.43
2018-01-13T06:44:48.989Z,48.93
2018-01-13T06:50:53.658Z,55.83
2018-01-13T06:56:57.146Z,56.90
2018-01-13T07:03:01.401Z,67.73
2018-01-13T07:09:05.687Z,50.10
2018-01-13T07:15:09.936Z,55.50
2018-01-13T07:21:13.428Z,64.07
2018-01-13T07:27:16.980Z,51.50
2018-01-13T07:33:22.117Z,49.27
2018-01-13T07:39:26.319Z,49.30
2018-01-13T07:45:30.584Z,50.23
2018-01-13T07:51:34.200Z,39.40
2018-01-13T07:57:37.676Z,37.53
2018-01-13T08:03:41.182Z,35.60
2018-01-13T08:09:44.670Z,38.37
2018-01-13T08:15:48.207Z,41.67
2018-01-13T08:21:51.670Z,38.80
2018-01-13T08:27:55.589Z,36.90
2018-01-13T08:33:59.136Z,44.70
2018-01-13T08:40:03.376Z,40.07
2018-01-13T08:46:06.845Z,31.50
2018-01-13T08:52:10.390Z,31.03
2018-01-13T08:58:15.397Z,27.57
2018-01-13T09:04:18.922Z,54.03
2018-01-13T09:10:22.496Z,36.70
2018-01-13T09:16:26.138Z,31.33
2018-01-13T09:22:29.762Z,31.20
2018-01-13T09:28:33.243Z,30.00
2018-01-13T09:34:36.723Z,33.87
2018-01-13T09:40:40.270Z,34.60
2018-01-13T09:46:43.753Z,38.10
2018-01-13T09:52:48.015Z,34.47
2018-01-13T09:58:52.422Z,42.20
2018-01-13T10:04:56.395Z,39.93
2018-01-13T10:11:00.001Z,39.33
2018-01-13T10:17:03.509Z,38.93
2018-01-13T10:23:07.024Z,47.17
2018-01-13T10:29:11.315Z,36.77
2018-01-13T10:35:15.569Z,38.37
2018-01-13T10:41:19.187Z,43.23
2018-01-13T10:47:22.922Z,34.97
2018-01-13T10:53:26.415Z,38.37
2018-01-13T10:59:31.562Z,39.60
2018-01-13T11:05:35.051Z,49.23
2018-01-13T11:11:38.722Z,46.77
2018-01-13T11:17:42.242Z,35.77
2018-01-13T11:23:45.975Z,52.40
2018-01-13T11:29:49.460Z,38.00
2018-01-13T11:35:53.059Z,36.83
2018-01-13T11:41:57.192Z,38.80
2018-01-13T11:48:00.673Z,51.43
2018-01-13T11:54:04.137Z,36.53
2018-01-13T12:00:08.376Z,41.57
2018-01-13T12:06:11.860Z,38.00
2018-01-13T12:12:16.090Z,42.17
2018-01-13T12:18:19.559Z,40.53
2018-01-13T12:24:23.026Z,39.50
2018-01-13T12:30:26.902Z,47.87
2018-01-13T12:36:30.589Z,51.43
2018-01-13T12:42:34.114Z,51.37
2018-01-13T12:48:37.766Z,49.47
2018-01-13T12:54:41.239Z,45.23
2018-01-13T13:00:45.758Z,54.00
2018-01-13T13:06:49.213Z,54.33
2018-01-13T13:12:52.826Z,55.40
2018-01-13T13:18:56.337Z,55.87
2018-01-13T13:24:59.934Z,58.07
2018-01-13T13:31:04.243Z,69.93
2018-01-13T13:37:07.710Z,49.17
2018-01-13T13:43:11.344Z,57.67
2018-01-13T13:49:14.926Z,60.40
2018-01-13T13:55:18.455Z,58.50
2018-01-13T14:01:28.593Z,58.30
2018-01-13T14:07:25.845Z,50.63
2018-01-13T14:13:30.065Z,52.70
2018-01-13T14:19:33.540Z,57.07
2018-01-13T14:25:37.877Z,56.47
2018-01-13T14:31:41.341Z,60.57
2018-01-13T14:37:44.814Z,79.93
2018-01-13T14:43:48.279Z,64.20
2018-01-13T14:49:51.751Z,70.47
2018-01-13T14:55:55.998Z,66.63
2018-01-13T15:01:59.591Z,76.83
2018-01-13T15:08:03.056Z,59.97
2018-01-13T15:14:06.561Z,57.13
2018-01-13T15:20:10.031Z,53.10
2018-01-13T15:26:13.510Z,59.97
2018-01-13T15:32:16.978Z,56.30
2018-01-13T15:38:20.475Z,63.60
2018-01-13T15:44:24.255Z,69.43
2018-01-13T15:50:28.701Z,50.97
2018-01-13T15:56:32.259Z,51.03
2018-01-13T16:02:35.738Z,38.30
2018-01-13T16:08:39.352Z,44.20
2018-01-13T16:14:42.868Z,40.80
2018-01-13T16:20:47.104Z,39.53
2018-01-13T16:26:50.608Z,35.53
2018-01-13T16:32:54.215Z,41.60
2018-01-13T16:38:57.720Z,37.47
2018-01-13T16:45:01.201Z,37.87
2018-01-13T16:51:04.700Z,33.30
2018-01-13T16:57:08.214Z,35.27
2018-01-13T17:03:11.706Z,37.90
2018-01-13T17:09:15.197Z,34.77
2018-01-13T17:15:18.728Z,34.47
2018-01-13T17:21:22.417Z,36.27
2018-01-13T17:27:26.145Z,35.33
2018-01-13T17:33:30.435Z,33.77
2018-01-13T17:39:33.884Z,32.73
2018-01-13T17:45:37.381Z,26.13
2018-01-13T17:51:40.934Z,27.43
2018-01-13T17:57:44.482Z,29.23
2018-01-13T18:03:48.131Z,34.37
2018-01-13T18:09:51.664Z,24.17
2018-01-13T18:15:55.340Z,21.07
2018-01-13T18:21:58.972Z,23.07
2018-01-13T18:28:02.657Z,25.20
2018-01-13T18:34:06.114Z,25.53
2018-01-13T18:40:09.579Z,22.30
2018-01-13T18:46:13.002Z,26.50
2018-01-13T18:52:16.481Z,25.80
2018-01-13T18:58:20.025Z,29.97
2018-01-13T19:04:23.997Z,30.93
2018-01-13T19:10:27.505Z,24.50
2018-01-13T19:16:31.943Z,29.37
2018-01-13T19:22:35.435Z,31.73
2018-01-13T19:28:39.671Z,29.20
2018-01-13T19:34:43.149Z,29.13
2018-01-13T19:40:46.772Z,26.30
2018-01-13T19:46:50.398Z,23.43
2018-01-13T19:52:54.096Z,29.47
2018-01-13T19:58:57.628Z,29.13
2018-01-13T20:05:01.120Z,30.07
2018-01-13T20:11:04.891Z,30.37
2018-01-13T20:17:08.555Z,32.53
2018-01-13T20:23:12.778Z,27.80
2018-01-13T20:29:16.304Z,28.10
2018-01-13T20:35:19.753Z,29.03
2018-01-13T20:41:23.232Z,27.53
2018-01-13T20:47:26.907Z,26.73
2018-01-13T20:53:30.410Z,28.73
2018-01-13T20:59:34.716Z,31.50
2018-01-13T21:05:38.171Z,32.57
2018-01-13T21:11:41.687Z,32.00
2018-01-13T21:17:46.054Z,31.30
2018-01-13T21:23:50.321Z,34.27
2018-01-13T21:29:54.134Z,33.60
2018-01-13T21:35:58.078Z,31.87
2018-01-13T21:42:01.729Z,35.10
2018-01-13T21:48:05.295Z,31.37
2018-01-13T21:54:08.788Z,28.30
2018-01-13T22:00:12.256Z,35.33
2018-01-13T22:06:15.887Z,33.90
2018-01-13T22:12:19.481Z,33.33
2018-01-13T22:18:24.070Z,33.57
2018-01-13T22:24:27.602Z,37.13
2018-01-13T22:30:31.100Z,38.40
2018-01-13T22:36:34.647Z,35.70
2018-01-13T22:42:38.146Z,34.67
2018-01-13T22:48:41.616Z,31.13
2018-01-13T22:54:45.155Z,32.30
2018-01-13T23:00:54.318Z,33.50
2018-01-13T23:06:57.803Z,27.37
2018-01-13T23:13:01.392Z,26.37
2018-01-13T23:19:04.871Z,25.07
2018-01-13T23:25:08.370Z,20.03
2018-01-13T23:31:11.877Z,17.20
2018-01-13T23:37:15.447Z,21.17
2018-01-13T23:43:18.937Z,22.50
2018-01-13T23:49:22.403Z,19.23
2018-01-13T23:55:27.098Z,22.10
